Time;durP1;ratioP1;P1;durP2;ratioP2;P2;SDS_P1;SDS_P2;PMS_P1;PMS_P2;Temp;Humidity;BMP_temperature;BMP_pressure;BME280_temperature;BME280_humidity;BME280_pressure;Samples;Min_cycle;Max_cycle;Signal;HPM_P1;HPM_P2
2022/03/23 00:01:23;;;;;;;39.67;29.63;;;5.00;99.90;;;;;;5001175;28;20156;-65
2022/03/23 00:03:50;;;;;;;35.65;26.13;;;5.00;99.90;;;;;;4997911;28;20054;-64
2022/03/23 00:06:17;;;;;;;42.08;29.60;;;5.00;99.90;;;;;;5001433;28;20046;-64
2022/03/23 00:08:48;;;;;;;38.88;27.42;;;5.00;99.90;;;;;;5003372;28;20467;-66
2022/03/23 00:11:15;;;;;;;39.42;29.02;;;4.90;99.90;;;;;;5001202;28;20053;-65
2022/03/23 00:13:42;;;;;;;44.78;27.17;;;4.80;99.90;;;;;;5003803;28;20128;-64
2022/03/23 00:16:09;;;;;;;39.00;27.95;;;4.80;99.90;;;;;;5003778;28;20058;-65
2022/03/23 00:18:36;;;;;;;37.70;24.55;;;4.70;99.90;;;;;;4993004;28;20077;-68
2022/03/23 00:21:03;;;;;;;42.95;27.58;;;4.70;99.90;;;;;;5003857;28;20069;-64
2022/03/23 00:23:31;;;;;;;41.55;29.70;;;4.70;99.90;;;;;;5000003;28;20058;-66
2022/03/23 00:25:59;;;;;;;38.13;26.30;;;4.80;99.90;;;;;;5007629;28;20073;-65
2022/03/23 00:28:27;;;;;;;37.35;28.25;;;4.80;99.90;;;;;;5003941;28;20065;-67
2022/03/23 00:30:55;;;;;;;37.83;26.85;;;4.70;99.90;;;;;;5003422;28;20728;-67
2022/03/23 00:33:29;;;;;;;38.17;26.00;;;4.70;99.90;;;;;;5001678;28;20050;-64
2022/03/23 00:35:56;;;;;;;35.65;26.33;;;4.70;99.90;;;;;;5002580;28;20076;-67
2022/03/23 00:38:23;;;;;;;41.38;27.52;;;4.70;99.90;;;;;;4996464;28;20746;-64
2022/03/23 00:40:51;;;;;;;43.72;28.58;;;4.60;99.90;;;;;;4992752;28;20160;-68
2022/03/23 00:43:18;;;;;;;38.28;27.05;;;4.60;99.90;;;;;;4993120;28;20133;-67
2022/03/23 00:45:45;;;;;;;35.10;26.52;;;4.50;99.90;;;;;;5003572;28;20045;-66
2022/03/23 00:48:12;;;;;;;39.08;26.83;;;4.50;99.90;;;;;;5002718;28;20127;-64
2022/03/23 00:50:39;;;;;;;37.08;25.10;;;4.40;99.90;;;;;;5002653;28;20057;-68
2022/03/23 00:53:06;;;;;;;38.60;25.67;;;4.40;99.90;;;;;;4991716;28;20081;-66
2022/03/23 00:55:33;;;;;;;37.08;26.60;;;4.30;99.90;;;;;;5002956;28;20141;-68
2022/03/23 00:58:00;;;;;;;34.72;26.67;;;4.20;99.90;;;;;;5003629;28;20050;-68
2022/03/23 01:00:27;;;;;;;41.83;28.08;;;4.10;99.90;;;;;;4998255;28;20124;-67
2022/03/23 01:02:54;;;;;;;42.00;28.40;;;4.10;99.90;;;;;;5005157;28;20104;-67
2022/03/23 01:05:21;;;;;;;42.95;30.50;;;4.10;99.90;;;;;;5000403;28;20464;-66
2022/03/23 01:07:49;;;;;;;37.92;27.48;;;4.00;99.90;;;;;;4998127;28;20050;-68
2022/03/23 01:10:17;;;;;;;45.38;28.67;;;3.90;99.90;;;;;;4994652;28;20606;-66
2022/03/23 01:12:46;;;;;;;42.70;29.95;;;3.80;99.90;;;;;;5001312;28;20058;-68
2022/03/23 01:15:15;;;;;;;41.25;32.45;;;3.80;99.90;;;;;;5000683;28;20534;-64
2022/03/23 01:17:43;;;;;;;37.38;26.52;;;3.80;99.90;;;;;;5002476;28;20045;-63
2022/03/23 01:20:14;;;;;;;44.85;29.85;;;3.70;99.90;;;;;;5001012;28;20077;-66
2022/03/23 01:22:43;;;;;;;43.47;28.92;;;3.70;99.90;;;;;;5003058;28;20053;-64
2022/03/23 01:25:15;;;;;;;41.85;31.17;;;3.70;99.90;;;;;;4999801;28;20786;-68
2022/03/23 01:27:43;;;;;;;40.92;29.77;;;3.60;99.90;;;;;;5001571;28;20046;-65
2022/03/23 01:30:12;;;;;;;41.28;29.55;;;3.60;99.90;;;;;;5001949;28;20076;-64
2022/03/23 01:32:40;;;;;;;40.83;30.05;;;3.60;99.90;;;;;;4996183;28;20053;-68
2022/03/23 01:35:08;;;;;;;38.80;29.35;;;3.50;99.90;;;;;;4997974;28;20162;-65
2022/03/23 01:37:35;;;;;;;46.70;31.52;;;3.50;99.90;;;;;;4996640;28;20110;-67
2022/03/23 01:40:08;;;;;;;43.67;33.42;;;3.40;99.90;;;;;;5001539;28;20152;-68
2022/03/23 01:42:36;;;;;;;45.08;30.02;;;3.40;99.90;;;;;;4994657;28;20061;-66
2022/03/23 01:45:05;;;;;;;44.33;29.52;;;3.40;99.90;;;;;;4992856;28;20135;-65
2022/03/23 01:47:33;;;;;;;42.88;31.45;;;3.40;99.90;;;;;;4992750;28;20045;-65
2022/03/23 01:50:00;;;;;;;45.67;31.50;;;3.50;99.90;;;;;;4994531;28;20065;-65
2022/03/23 01:52:29;;;;;;;54.45;35.78;;;3.50;99.90;;;;;;5002333;28;20100;-65
2022/03/23 01:55:04;;;;;;;48.35;34.70;;;3.40;99.90;;;;;;4994494;28;20065;-66
2022/03/23 01:57:32;;;;;;;44.40;32.25;;;3.40;99.90;;;;;;4987052;28;20122;-66
2022/03/23 01:59:59;;;;;;;52.92;34.33;;;3.40;99.90;;;;;;5000607;28;20582;-67
2022/03/23 02:02:26;;;;;;;46.75;33.55;;;3.40;99.90;;;;;;5000913;28;20603;-65
2022/03/23 02:04:55;;;;;;;46.70;34.42;;;3.30;99.90;;;;;;4999596;28;20061;-66
2022/03/23 02:07:24;;;;;;;43.88;33.78;;;3.40;99.90;;;;;;4998251;28;20084;-67
2022/03/23 02:09:52;;;;;;;50.42;32.42;;;3.40;99.90;;;;;;4995976;28;20050;-65
2022/03/23 02:12:26;;;;;;;52.58;33.17;;;3.40;99.90;;;;;;5001708;28;20123;-64
2022/03/23 02:14:53;;;;;;;44.05;31.60;;;3.40;99.90;;;;;;4987660;28;20134;-66
2022/03/23 02:17:20;;;;;;;46.08;32.20;;;3.30;99.90;;;;;;4998629;28;20085;-63
2022/03/23 02:19:47;;;;;;;45.88;30.15;;;3.30;99.90;;;;;;5000333;28;20061;-64
2022/03/23 02:22:14;;;;;;;48.75;34.40;;;3.30;99.90;;;;;;5000239;28;20041;-64
2022/03/23 02:24:41;;;;;;;46.78;32.00;;;3.30;99.90;;;;;;5003293;28;20100;-66
2022/03/23 02:27:09;;;;;;;51.28;35.88;;;3.30;99.90;;;;;;4997451;28;20077;-66
2022/03/23 02:29:36;;;;;;;43.70;31.58;;;3.30;99.90;;;;;;5004010;28;20049;-65
2022/03/23 02:32:04;;;;;;;50.40;32.22;;;3.30;99.90;;;;;;5006439;28;20064;-63
2022/03/23 02:34:31;;;;;;;44.70;32.35;;;3.30;99.90;;;;;;5004349;28;20140;-65
2022/03/23 02:36:59;;;;;;;51.33;35.03;;;3.30;99.90;;;;;;5004723;28;20157;-68
2022/03/23 02:39:26;;;;;;;47.95;32.13;;;3.30;99.90;;;;;;4985816;28;20056;-63
2022/03/23 02:41:56;;;;;;;56.15;33.95;;;3.30;99.90;;;;;;5002279;28;20061;-63
2022/03/23 02:44:25;;;;;;;52.13;33.80;;;3.30;99.90;;;;;;5003993;28;20142;-64
2022/03/23 02:46:53;;;;;;;47.92;32.70;;;3.30;99.90;;;;;;5006053;28;20100;-65
2022/03/23 02:49:20;;;;;;;50.75;30.85;;;3.30;99.90;;;;;;5003199;28;20470;-66
2022/03/23 02:51:49;;;;;;;52.17;32.38;;;3.30;99.90;;;;;;5004510;28;20050;-63
2022/03/23 03:03:08;;;;;;;50.80;31.58;;;3.30;99.90;;;;;;5003223;28;20411;-64
2022/03/23 03:05:35;;;;;;;58.05;33.22;;;3.30;99.90;;;;;;4993932;28;20404;-66
2022/03/23 03:10:48;;;;;;;50.70;29.95;;;3.30;99.90;;;;;;4992840;28;20705;-65
2022/03/23 03:13:15;;;;;;;47.90;31.77;;;3.30;99.90;;;;;;5003689;28;20049;-64
2022/03/23 03:15:42;;;;;;;48.17;30.92;;;3.20;99.90;;;;;;5002816;28;20372;-65
2022/03/23 03:18:09;;;;;;;54.22;32.35;;;3.20;99.90;;;;;;5004493;28;20156;-69
2022/03/23 03:20:36;;;;;;;48.03;32.30;;;3.20;99.90;;;;;;5001369;28;20074;-64
2022/03/23 03:23:03;;;;;;;59.65;32.72;;;3.20;99.90;;;;;;4997683;28;20271;-67
2022/03/23 03:25:30;;;;;;;55.88;30.20;;;3.10;99.90;;;;;;5003570;28;20129;-68
2022/03/23 03:27:58;;;;;;;42.97;29.48;;;3.10;99.90;;;;;;5004687;28;20069;-64
2022/03/23 03:30:25;;;;;;;48.00;31.77;;;3.10;99.90;;;;;;4997857;28;20049;-65
2022/03/23 03:32:52;;;;;;;49.63;31.65;;;3.10;99.90;;;;;;4995448;28;20450;-65
2022/03/23 03:35:19;;;;;;;48.50;30.23;;;3.00;99.90;;;;;;5001286;28;20073;-64
2022/03/23 03:37:46;;;;;;;45.05;31.08;;;3.10;99.90;;;;;;5003240;28;20077;-67
2022/03/23 03:40:13;;;;;;;44.00;31.83;;;3.10;99.90;;;;;;5004236;28;20058;-66
2022/03/23 03:42:40;;;;;;;45.00;29.52;;;3.20;99.90;;;;;;5001438;28;20155;-64
2022/03/23 03:45:08;;;;;;;50.95;34.22;;;3.10;99.90;;;;;;4998184;28;20144;-68
2022/03/23 03:47:34;;;;;;;50.80;30.52;;;3.20;99.90;;;;;;5004988;28;20093;-64
2022/03/23 03:50:02;;;;;;;43.53;30.52;;;3.10;99.90;;;;;;4999505;28;20125;-65
2022/03/23 03:52:29;;;;;;;44.45;30.52;;;3.10;99.90;;;;;;4996105;28;20156;-66
2022/03/23 03:54:56;;;;;;;56.20;30.00;;;3.10;99.90;;;;;;5001630;28;20142;-70
2022/03/23 03:57:23;;;;;;;52.22;33.63;;;3.10;99.90;;;;;;4999798;28;20058;-65
2022/03/23 03:59:50;;;;;;;51.65;32.22;;;3.10;99.90;;;;;;5003947;28;20058;-68
2022/03/23 04:02:17;;;;;;;55.30;32.13;;;3.10;99.90;;;;;;5004130;28;20688;-65
2022/03/23 04:04:44;;;;;;;48.50;29.13;;;3.10;99.90;;;;;;5003405;28;20074;-65
2022/03/23 04:07:11;;;;;;;48.65;30.48;;;3.10;99.90;;;;;;5002808;28;20140;-68
2022/03/23 04:09:37;;;;;;;48.83;30.75;;;3.10;99.90;;;;;;5001904;28;20156;-64
2022/03/23 04:12:05;;;;;;;54.10;32.40;;;3.00;99.90;;;;;;5003472;28;20061;-66
2022/03/23 04:14:32;;;;;;;53.90;31.15;;;3.00;99.90;;;;;;5003810;28;20115;-69
2022/03/23 04:16:59;;;;;;;50.53;30.92;;;3.00;99.90;;;;;;5001964;28;20610;-65
2022/03/23 04:19:26;;;;;;;46.33;31.02;;;3.00;99.90;;;;;;4991597;28;20057;-65
2022/03/23 04:21:53;;;;;;;56.47;33.13;;;3.00;99.90;;;;;;5001622;28;20108;-66
2022/03/23 04:24:20;;;;;;;55.10;33.45;;;3.00;99.90;;;;;;5003222;28;20059;-64
2022/03/23 04:26:47;;;;;;;46.88;29.35;;;3.00;99.90;;;;;;5001112;28;20056;-64
2022/03/23 04:29:14;;;;;;;47.55;31.90;;;2.90;99.90;;;;;;5001070;28;20153;-64
2022/03/23 04:31:41;;;;;;;47.90;32.28;;;2.90;99.90;;;;;;5015251;28;20069;-65
2022/03/23 04:34:08;;;;;;;50.13;32.58;;;2.90;99.90;;;;;;5002258;28;20050;-66
2022/03/23 04:36:35;;;;;;;53.22;31.13;;;2.90;99.90;;;;;;5004303;28;20042;-67
2022/03/23 04:39:02;;;;;;;55.05;30.42;;;2.80;99.90;;;;;;5002507;28;20057;-64
2022/03/23 04:41:29;;;;;;;52.10;34.92;;;2.90;99.90;;;;;;5001645;28;20126;-62
2022/03/23 04:43:56;;;;;;;53.67;31.67;;;2.90;99.90;;;;;;5001220;28;20128;-67
2022/03/23 04:46:23;;;;;;;47.83;31.63;;;2.90;99.90;;;;;;5000057;28;20076;-63
2022/03/23 04:48:50;;;;;;;49.95;33.90;;;2.90;99.90;;;;;;4999799;28;20053;-64
2022/03/23 04:51:17;;;;;;;53.13;34.00;;;2.90;99.90;;;;;;5001542;28;20101;-66
2022/03/23 04:53:44;;;;;;;48.60;31.00;;;3.00;99.90;;;;;;5001355;28;20156;-64
2022/03/23 04:56:11;;;;;;;49.05;33.67;;;3.00;99.90;;;;;;5000725;28;20050;-64
2022/03/23 04:58:38;;;;;;;51.28;32.00;;;3.00;99.90;;;;;;5001800;28;20081;-65
2022/03/23 05:01:05;;;;;;;56.38;31.85;;;3.00;99.90;;;;;;4994743;28;20632;-68
2022/03/23 05:03:33;;;;;;;50.35;32.50;;;3.00;99.90;;;;;;5003599;28;20046;-64
2022/03/23 05:06:00;;;;;;;53.40;32.33;;;3.00;99.90;;;;;;5002768;28;20085;-69
2022/03/23 05:08:27;;;;;;;49.80;30.45;;;3.10;99.90;;;;;;5000495;28;20046;-65
2022/03/23 05:10:54;;;;;;;55.50;31.65;;;3.00;99.90;;;;;;4999212;28;20127;-69
2022/03/23 05:13:21;;;;;;;58.25;32.85;;;3.10;99.90;;;;;;4991503;28;20046;-70
2022/03/23 05:15:48;;;;;;;50.72;31.00;;;3.00;99.90;;;;;;5002829;28;20869;-64
2022/03/23 05:18:15;;;;;;;50.05;31.02;;;3.00;99.90;;;;;;5002623;28;20108;-64
2022/03/23 05:20:42;;;;;;;44.58;31.33;;;3.10;99.90;;;;;;5002484;28;20388;-66
2022/03/23 05:23:09;;;;;;;54.65;31.50;;;3.00;99.90;;;;;;5000297;28;20057;-68
2022/03/23 05:25:36;;;;;;;52.00;31.23;;;3.10;99.90;;;;;;5001471;28;20555;-66
2022/03/23 05:28:07;;;;;;;54.75;31.73;;;3.10;99.90;;;;;;5001262;28;20127;-66
2022/03/23 05:30:35;;;;;;;49.72;31.58;;;3.00;99.90;;;;;;4999577;28;20128;-64
2022/03/23 05:33:03;;;;;;;47.92;29.80;;;3.10;99.90;;;;;;5002680;28;20077;-64
2022/03/23 05:35:29;;;;;;;48.92;30.10;;;3.10;99.90;;;;;;5000448;28;20045;-68
2022/03/23 05:37:57;;;;;;;59.72;30.98;;;3.10;99.90;;;;;;4996711;28;20570;-65
2022/03/23 05:40:24;;;;;;;52.40;31.52;;;3.10;99.90;;;;;;4987299;28;20080;-65
2022/03/23 05:42:51;;;;;;;48.83;31.42;;;3.00;99.90;;;;;;4992405;28;20152;-67
2022/03/23 05:45:23;;;;;;;42.00;30.40;;;3.00;99.90;;;;;;4982976;28;20069;-65
2022/03/23 05:47:52;;;;;;;49.10;31.38;;;3.10;99.90;;;;;;4995388;28;20046;-67
2022/03/23 05:50:20;;;;;;;55.88;32.28;;;3.10;99.90;;;;;;5002085;28;20050;-65
2022/03/23 05:52:47;;;;;;;54.53;33.58;;;3.10;99.90;;;;;;4998990;28;20064;-66
2022/03/23 05:55:14;;;;;;;53.22;31.70;;;3.10;99.90;;;;;;4990164;28;20042;-64
2022/03/23 05:57:41;;;;;;;60.58;31.88;;;3.10;99.90;;;;;;4988054;28;20050;-66
2022/03/23 06:00:09;;;;;;;48.53;27.92;;;3.10;99.90;;;;;;4997570;28;20125;-65
2022/03/23 06:02:40;;;;;;;49.25;29.90;;;3.10;99.90;;;;;;4993902;28;20506;-65
2022/03/23 06:05:09;;;;;;;45.47;28.92;;;3.10;99.90;;;;;;5014449;28;20161;-68
2022/03/23 06:07:36;;;;;;;54.58;30.10;;;3.10;99.90;;;;;;4994700;28;20057;-64
2022/03/23 06:10:07;;;;;;;45.63;30.70;;;3.10;99.90;;;;;;4999801;28;20037;-65
2022/03/23 06:12:33;;;;;;;;;;;3.20;99.90;;;;;;4976650;28;20113;-64
2022/03/23 06:15:00;;;;;;;48.72;29.13;;;3.20;99.90;;;;;;4998011;28;20666;-66
2022/03/23 06:17:27;;;;;;;44.08;28.95;;;3.20;99.90;;;;;;4992035;28;20058;-74
2022/03/23 06:19:54;;;;;;;46.75;31.38;;;3.20;99.90;;;;;;4990477;28;20767;-68
2022/03/23 06:22:21;;;;;;;39.35;27.38;;;3.20;99.90;;;;;;4999659;28;20933;-67
2022/03/23 06:24:52;;;;;;;52.55;29.83;;;3.20;99.90;;;;;;4990310;28;20058;-71
2022/03/23 06:27:19;;;;;;;44.92;25.90;;;3.20;99.90;;;;;;4995125;28;20685;-66
2022/03/23 06:29:46;;;;;;;47.38;27.05;;;3.20;99.90;;;;;;4992667;28;20578;-68
2022/03/23 06:32:13;;;;;;;43.80;28.15;;;3.20;99.90;;;;;;4995662;28;20233;-64
2022/03/23 06:34:40;;;;;;;50.40;27.10;;;3.20;99.90;;;;;;4997583;28;20112;-64
2022/03/23 06:37:08;;;;;;;46.10;28.20;;;3.30;99.90;;;;;;4989363;28;20416;-65
2022/03/23 06:39:35;;;;;;;53.13;27.00;;;3.30;99.90;;;;;;4996644;28;20712;-68
2022/03/23 06:42:02;;;;;;;40.22;26.27;;;3.30;99.90;;;;;;5005128;28;20145;-67
2022/03/23 06:44:29;;;;;;;47.83;28.58;;;3.30;99.90;;;;;;5004760;28;20053;-65
2022/03/23 06:46:56;;;;;;;43.90;27.05;;;3.30;99.90;;;;;;5003425;28;20559;-66
2022/03/23 06:49:23;;;;;;;43.80;26.95;;;3.30;99.90;;;;;;5001020;28;20400;-63
2022/03/23 06:51:50;;;;;;;41.42;26.83;;;3.40;99.90;;;;;;4998949;28;20487;-64
2022/03/23 06:54:18;;;;;;;41.72;27.88;;;3.40;99.90;;;;;;5010756;28;20084;-69
2022/03/23 06:56:45;;;;;;;49.88;27.20;;;3.40;99.90;;;;;;5003167;28;20135;-65
2022/03/23 06:59:11;;;;;;;64.60;26.50;;;3.40;99.90;;;;;;5001298;28;20554;-67
2022/03/23 07:01:38;;;;;;;55.85;30.80;;;3.40;99.90;;;;;;5004099;28;20510;-69
2022/03/23 07:04:05;;;;;;;51.03;25.35;;;3.40;99.90;;;;;;5004832;28;20060;-64
2022/03/23 07:06:32;;;;;;;41.22;27.40;;;3.50;99.90;;;;;;5004368;28;20070;-68
2022/03/23 07:11:45;;;;;;;33.08;23.67;;;3.50;99.90;;;;;;5002932;28;20128;-65
2022/03/23 07:14:12;;;;;;;41.85;27.10;;;3.50;99.90;;;;;;5001060;28;20057;-67
2022/03/23 07:16:39;;;;;;;42.92;27.83;;;3.60;99.90;;;;;;5003520;28;20073;-66
2022/03/23 07:19:06;;;;;;;49.63;26.67;;;3.60;99.90;;;;;;4997799;28;20050;-69
2022/03/23 07:21:33;;;;;;;53.67;27.90;;;3.60;99.90;;;;;;5004316;28;20554;-67
2022/03/23 07:24:00;;;;;;;38.17;25.40;;;3.60;99.90;;;;;;4998368;28;20657;-67
2022/03/23 07:26:27;;;;;;;40.17;26.00;;;3.60;99.90;;;;;;5002536;28;20100;-66
2022/03/23 07:28:53;;;;;;;40.30;26.20;;;3.60;99.90;;;;;;5003542;28;20077;-66
2022/03/23 07:31:20;;;;;;;42.20;26.67;;;3.70;99.90;;;;;;5001641;28;20149;-65
2022/03/23 07:33:47;;;;;;;43.08;24.48;;;3.70;99.90;;;;;;4996145;28;20053;-65
2022/03/23 07:36:14;;;;;;;38.65;25.40;;;3.70;99.90;;;;;;5011669;28;20054;-66
2022/03/23 07:38:41;;;;;;;37.85;25.25;;;3.70;99.90;;;;;;5002790;28;20123;-65
2022/03/23 07:41:08;;;;;;;35.22;23.38;;;3.70;99.90;;;;;;5000799;28;20046;-67
2022/03/23 07:43:35;;;;;;;34.47;21.73;;;3.80;99.90;;;;;;5003608;28;20093;-64
2022/03/23 07:46:02;;;;;;;35.80;21.00;;;3.80;99.90;;;;;;5003552;28;20046;-67
2022/03/23 07:48:30;;;;;;;31.40;21.00;;;3.80;99.90;;;;;;5002483;28;20084;-63
2022/03/23 07:50:58;;;;;;;29.70;21.25;;;3.90;99.90;;;;;;5001230;28;20065;-65
2022/03/23 07:53:29;;;;;;;35.17;22.13;;;3.80;99.90;;;;;;5002411;28;20056;-65
2022/03/23 07:55:57;;;;;;;40.08;22.55;;;3.80;99.90;;;;;;5004177;28;20468;-63
2022/03/23 07:58:25;;;;;;;41.05;20.70;;;3.90;99.90;;;;;;5003540;28;20833;-68
2022/03/23 08:00:53;;;;;;;33.55;20.05;;;3.90;99.90;;;;;;5003642;28;20042;-68
2022/03/23 08:03:20;;;;;;;38.38;24.98;;;3.90;99.90;;;;;;5002666;28;20049;-65
2022/03/23 08:05:48;;;;;;;37.90;20.80;;;4.00;99.90;;;;;;5003824;28;20172;-67
2022/03/23 08:08:15;;;;;;;29.65;19.55;;;4.00;99.90;;;;;;5003726;28;20049;-63
2022/03/23 08:10:43;;;;;;;39.33;23.38;;;4.00;99.90;;;;;;5003557;28;20582;-66
2022/03/23 08:13:11;;;;;;;34.20;21.70;;;4.10;99.90;;;;;;5000116;28;20074;-67
2022/03/23 08:15:40;;;;;;;33.10;20.73;;;4.10;99.90;;;;;;5003415;28;20461;-65
2022/03/23 08:18:07;;;;;;;32.95;19.27;;;4.10;99.90;;;;;;5003315;28;20897;-66
2022/03/23 08:20:35;;;;;;;29.17;18.85;;;4.00;99.90;;;;;;5002175;28;20132;-69
2022/03/23 08:23:08;;;;;;;36.03;21.92;;;4.00;99.90;;;;;;5003249;28;20100;-66
2022/03/23 08:25:41;;;;;;;34.10;21.52;;;4.00;99.90;;;;;;4996168;28;20078;-65
2022/03/23 08:28:12;;;;;;;32.10;19.58;;;4.10;99.90;;;;;;4997760;28;20056;-64
2022/03/23 08:30:40;;;;;;;33.78;21.52;;;4.20;99.90;;;;;;5000545;28;20141;-66
2022/03/23 08:33:08;;;;;;;28.52;22.92;;;4.10;99.90;;;;;;5000451;28;20502;-66
2022/03/23 08:35:35;;;;;;;29.55;19.23;;;4.10;99.90;;;;;;5002678;28;20386;-64
2022/03/23 08:38:03;;;;;;;26.30;20.55;;;4.20;99.90;;;;;;5003185;28;20057;-66
2022/03/23 08:40:30;;;;;;;29.15;20.63;;;4.30;99.90;;;;;;4998520;28;20474;-70
2022/03/23 08:42:58;;;;;;;39.55;20.30;;;4.30;99.90;;;;;;4992761;28;20129;-68
2022/03/23 08:45:26;;;;;;;38.08;19.45;;;4.30;99.90;;;;;;4996737;28;20117;-67
2022/03/23 08:47:54;;;;;;;33.92;19.73;;;4.30;99.90;;;;;;4998052;28;20669;-68
2022/03/23 08:50:21;;;;;;;46.88;23.35;;;4.20;99.90;;;;;;4995421;28;20463;-63
2022/03/23 08:52:48;;;;;;;32.13;20.70;;;4.20;99.90;;;;;;4995447;28;20089;-67
2022/03/23 08:55:19;;;;;;;29.00;20.48;;;4.30;99.90;;;;;;4998293;28;20053;-65
2022/03/23 08:57:47;;;;;;;26.67;20.05;;;4.30;99.90;;;;;;5003318;28;20069;-65
2022/03/23 09:00:15;;;;;;;34.78;20.45;;;4.30;99.90;;;;;;4996614;28;20141;-65
2022/03/23 09:02:41;;;;;;;31.23;20.20;;;4.40;99.90;;;;;;4996360;28;20166;-65
2022/03/23 09:05:10;;;;;;;32.90;19.33;;;4.40;99.90;;;;;;5001315;28;20062;-66
2022/03/23 09:07:38;;;;;;;51.95;22.25;;;4.50;99.90;;;;;;5002947;28;20050;-64
2022/03/23 09:10:09;;;;;;;30.25;19.20;;;4.50;99.90;;;;;;5002054;28;20050;-68
2022/03/23 09:12:36;;;;;;;32.78;19.75;;;4.40;99.90;;;;;;5002297;28;20764;-66
2022/03/23 09:15:08;;;;;;;32.40;17.85;;;4.50;99.90;;;;;;5002383;28;20131;-65
2022/03/23 09:17:36;;;;;;;32.38;20.45;;;4.50;99.90;;;;;;5001360;28;20131;-63
2022/03/23 09:20:07;;;;;;;37.83;18.38;;;4.40;99.90;;;;;;5007792;28;20488;-65
2022/03/23 09:22:37;;;;;;;27.00;18.23;;;4.40;99.90;;;;;;4999919;28;20057;-70
2022/03/23 09:25:06;;;;;;;35.97;23.35;;;4.40;99.90;;;;;;5005900;28;20050;-66
2022/03/23 09:27:34;;;;;;;26.67;19.05;;;4.50;99.90;;;;;;5001354;28;20052;-67
2022/03/23 09:30:02;;;;;;;35.30;18.52;;;4.40;99.90;;;;;;4995459;28;20131;-67
2022/03/23 09:32:30;;;;;;;35.05;21.55;;;4.40;99.90;;;;;;4993107;28;21152;-68
2022/03/23 09:34:57;;;;;;;32.60;19.17;;;4.50;99.90;;;;;;4985641;28;20141;-66
2022/03/23 09:40:10;;;;;;;35.03;19.17;;;4.40;99.90;;;;;;4990190;28;20049;-70
2022/03/23 09:42:40;;;;;;;36.15;21.35;;;4.50;99.90;;;;;;4987813;28;20054;-65
2022/03/23 09:45:07;;;;;;;35.15;19.73;;;4.60;99.90;;;;;;4993713;28;20152;-65
2022/03/23 09:47:37;;;;;;;47.75;21.15;;;4.70;99.90;;;;;;4996003;28;20053;-66
2022/03/23 09:50:04;;;;;;;32.60;20.03;;;4.80;99.90;;;;;;4994560;28;20598;-66
2022/03/23 09:52:31;;;;;;;32.70;20.27;;;4.90;99.90;;;;;;4989108;28;20070;-70
2022/03/23 09:54:58;;;;;;;29.50;19.75;;;5.00;99.90;;;;;;4990774;28;20140;-68
2022/03/23 09:57:25;;;;;;;34.65;21.38;;;5.00;99.90;;;;;;4988890;28;20080;-66
2022/03/23 09:59:52;;;;;;;34.42;20.40;;;5.00;99.90;;;;;;4986605;28;20821;-67
2022/03/23 10:02:59;;;;;;;32.40;21.80;;;5.10;99.90;;;;;;4992642;28;20045;-67
2022/03/23 10:06:05;;;;;;;28.63;20.90;;;5.00;99.90;;;;;;4992915;28;20107;-63
2022/03/23 10:09:06;;;;;;;30.13;20.90;;;5.00;99.90;;;;;;4996157;28;20156;-62
2022/03/23 10:12:09;;;;;;;29.50;22.27;;;4.90;99.90;;;;;;4998636;28;20713;-64
2022/03/23 10:15:00;;;;;;;33.40;20.88;;;5.00;99.90;;;;;;4990001;28;20146;-65
2022/03/23 10:18:05;;;;;;;32.63;21.35;;;5.10;99.90;;;;;;4994682;28;20086;-66
2022/03/23 10:20:32;;;;;;;25.50;18.38;;;5.20;99.90;;;;;;4997265;28;20081;-66
2022/03/23 10:22:59;;;;;;;29.05;19.52;;;5.20;99.90;;;;;;4988580;28;20072;-65
2022/03/23 10:25:28;;;;;;;39.15;22.00;;;5.20;99.90;;;;;;4990285;28;20074;-69
2022/03/23 10:27:56;;;;;;;36.23;19.67;;;5.10;99.90;;;;;;4988513;28;20140;-65
2022/03/23 10:30:37;;;;;;;26.48;19.15;;;5.20;99.90;;;;;;4992381;28;20161;-63
2022/03/23 10:33:23;;;;;;;30.20;18.80;;;5.20;99.90;;;;;;4994361;28;20123;-66
2022/03/23 10:35:51;;;;;;;27.08;18.67;;;5.20;99.90;;;;;;4997490;28;20053;-66
2022/03/23 10:38:23;;;;;;;25.85;19.00;;;5.20;99.90;;;;;;4993716;28;20136;-64
2022/03/23 10:40:52;;;;;;;26.90;18.42;;;5.10;99.90;;;;;;4996285;28;20045;-71
2022/03/23 10:43:35;;;;;;;28.00;20.20;;;5.30;99.90;;;;;;4988858;28;20088;-64
2022/03/23 10:46:13;;;;;;;27.48;17.52;;;5.30;99.90;;;;;;4992339;28;20933;-64
2022/03/23 10:49:01;;;;;;;28.38;19.55;;;5.40;99.90;;;;;;4995496;28;20049;-64
2022/03/23 10:51:33;;;;;;;28.30;20.40;;;5.40;99.90;;;;;;4991881;28;20133;-64
2022/03/23 10:54:25;;;;;;;26.30;18.55;;;5.60;99.90;;;;;;4995186;28;20404;-66
2022/03/23 10:56:52;;;;;;;31.33;19.33;;;5.50;99.90;;;;;;4998743;28;20168;-64
2022/03/23 10:59:25;;;;;;;27.05;19.23;;;5.60;99.90;;;;;;4999935;28;20136;-66
2022/03/23 11:01:56;;;;;;;32.38;19.30;;;5.70;99.90;;;;;;5000871;28;20112;-64
2022/03/23 11:04:29;;;;;;;29.23;19.33;;;5.80;99.90;;;;;;4994713;28;20057;-63
2022/03/23 11:07:01;;;;;;;28.70;18.52;;;5.80;99.90;;;;;;4991021;28;20155;-63
2022/03/23 11:18:11;;;;;;;24.40;16.55;;;6.00;99.90;;;;;;4991372;28;20074;-65
2022/03/23 11:20:44;;;;;;;23.25;18.05;;;6.10;99.90;;;;;;4994955;28;20139;-67
2022/03/23 11:23:19;;;;;;;35.67;18.58;;;6.20;99.90;;;;;;4996662;28;20073;-64
2022/03/23 11:25:48;;;;;;;24.02;17.85;;;6.30;99.90;;;;;;4997105;28;20076;-65
2022/03/23 11:28:16;;;;;;;28.13;18.35;;;6.30;99.90;;;;;;4997535;28;20054;-64
2022/03/23 11:30:44;;;;;;;28.75;20.70;;;6.20;99.90;;;;;;4999473;28;20057;-69
2022/03/23 11:33:14;;;;;;;30.67;17.35;;;6.20;99.90;;;;;;4992890;28;20164;-68
2022/03/23 11:35:48;;;;;;;27.50;19.17;;;6.30;99.90;;;;;;5002295;28;20053;-69
2022/03/23 11:38:18;;;;;;;33.13;19.73;;;6.40;99.90;;;;;;4992914;28;20092;-66
2022/03/23 11:40:47;;;;;;;30.77;17.80;;;6.50;99.90;;;;;;4994950;28;20104;-65
2022/03/23 11:43:16;;;;;;;32.63;17.67;;;6.50;99.90;;;;;;4993686;28;20092;-67
2022/03/23 11:46:04;;;;;;;28.88;17.00;;;6.50;99.90;;;;;;4994901;28;20062;-65
2022/03/23 11:48:57;;;;;;;25.75;16.88;;;6.50;99.90;;;;;;4999434;28;20111;-65
2022/03/23 11:51:24;;;;;;;27.65;18.77;;;6.40;99.90;;;;;;4999166;28;20262;-64
2022/03/23 11:53:50;;;;;;;25.00;16.90;;;6.40;99.90;;;;;;4994038;28;20116;-69
2022/03/23 11:56:25;;;;;;;22.42;15.48;;;6.40;99.90;;;;;;4990263;28;20045;-66
2022/03/23 11:58:52;;;;;;;25.80;16.13;;;6.50;99.90;;;;;;4995231;28;20156;-68
2022/03/23 12:01:20;;;;;;;28.73;17.77;;;6.50;99.90;;;;;;4995893;28;20412;-66
2022/03/23 12:03:50;;;;;;;28.60;16.38;;;6.50;99.90;;;;;;4995392;28;20050;-66
2022/03/23 12:06:22;;;;;;;28.20;16.05;;;6.70;99.90;;;;;;4995478;28;20050;-66
2022/03/23 12:08:52;;;;;;;35.67;16.17;;;6.70;99.90;;;;;;5001463;28;20108;-68
2022/03/23 12:11:42;;;;;;;24.30;15.35;;;6.70;99.90;;;;;;4999726;28;20054;-63
2022/03/23 12:14:29;;;;;;;24.98;17.20;;;6.80;99.90;;;;;;5003034;28;20054;-65
2022/03/23 12:16:56;;;;;;;20.30;16.02;;;6.70;99.90;;;;;;4998157;28;20070;-65
2022/03/23 12:20:03;;;;;;;21.80;14.43;;;6.70;99.90;;;;;;4998621;28;20164;-62
2022/03/23 12:22:33;;;;;;;27.25;16.63;;;6.80;99.90;;;;;;4999326;28;20062;-65
2022/03/23 12:25:19;;;;;;;25.30;17.63;;;6.80;99.90;;;;;;5002352;28;20065;-65
2022/03/23 12:27:46;;;;;;;36.40;17.08;;;6.80;99.90;;;;;;5000163;28;20053;-64
2022/03/23 12:30:31;;;;;;;26.23;16.25;;;6.80;99.90;;;;;;5002192;28;20536;-62
2022/03/23 12:33:00;;;;;;;22.58;15.68;;;6.80;99.90;;;;;;4996893;28;20096;-62
2022/03/23 12:35:32;;;;;;;17.85;14.75;;;7.00;99.90;;;;;;5000099;28;20090;-64
2022/03/23 12:37:59;;;;;;;25.42;15.57;;;6.90;99.90;;;;;;5002611;28;20064;-63
2022/03/23 12:40:41;;;;;;;22.42;15.70;;;7.00;99.90;;;;;;4998831;28;20053;-63
2022/03/23 12:43:09;;;;;;;29.95;15.15;;;6.90;99.90;;;;;;4991045;28;20172;-64
2022/03/23 12:45:39;;;;;;;18.67;13.18;;;7.00;99.90;;;;;;5001112;28;20073;-66
2022/03/23 12:57:49;;;;;;;23.98;14.70;;;7.00;99.90;;;;;;5003031;28;20368;-65
2022/03/23 12:59:23;;;;;;;26.45;16.13;;;7.40;99.90;;;;;;4997162;28;20050;-67
2022/03/23 13:02:24;;;;;;;19.60;14.25;;;7.40;99.90;;;;;;5000606;28;20046;-66
2022/03/23 13:04:52;;;;;;;;;;;7.40;99.90;;;;;;4992621;28;20466;-67
2022/03/23 13:07:28;;;;;;;22.10;14.70;;;7.40;99.90;;;;;;5001019;28;19925;-66
2022/03/23 13:09:57;;;;;;;22.02;12.73;;;7.40;99.90;;;;;;5002257;28;20072;-67
2022/03/23 13:12:27;;;;;;;20.17;13.82;;;7.50;99.90;;;;;;4995895;28;20053;-67
2022/03/23 13:14:54;;;;;;;27.45;13.30;;;7.60;99.90;;;;;;5002714;28;20053;-69
2022/03/23 13:17:21;;;;;;;26.65;15.70;;;7.80;99.90;;;;;;4996557;28;20080;-65
2022/03/23 13:19:55;;;;;;;20.88;13.75;;;7.80;99.90;;;;;;5002604;28;20073;-64
2022/03/23 13:22:33;;;;;;;26.60;12.60;;;7.70;99.90;;;;;;4994639;28;20054;-65
2022/03/23 13:25:05;;;;;;;32.35;14.70;;;7.60;99.90;;;;;;4999877;28;20062;-68